Flight Track Log - Related Links

Times and Time Zones

All times are in EDT time to prevent confusion due to time zone crossing. See the SKW5550 flight status page for this flight to view local times or setup timezone preferences in your user account.

Time Position Orientation Groundspeed Altitude Reporting Facility
EDT Latitude Longitude Course Direction KTS MPH feet Rate Location/Type
Mon 08:22:00 AM 44.1634 -108.6910 158° South  Level FlightAware Approximate
Mon 08:23:00 AM 44.0703 -108.6398 159° South  Level FlightAware Approximate
Mon 08:24:00 AM 43.9771 -108.5890 159° South  Level FlightAware Approximate
Mon 08:25:00 AM 43.8847 -108.5354 157° South  Level FlightAware Approximate
Mon 08:26:00 AM 43.7998 -108.4859 157° South  Level FlightAware Approximate
Mon 08:26:37 AM 44.2736 -108.7731 142° Southeast 326 375 14,800  Level Salt Lake Center
Mon 08:27:00 AM 43.7148 -108.4369 157° South  Level FlightAware Approximate
Mon 08:27:38 AM 44.1967 -108.7139 151° Southeast 341 392 14,900  Level Salt Lake Center
Mon 08:28:00 AM 43.6297 -108.3883 158° South  Level FlightAware Approximate
Mon 08:29:00 AM 43.5446 -108.3397 158° South  Level FlightAware Approximate
Mon 08:29:00 AM 44.0863 -108.6020 148° Southeast  Level Estimated
Mon 08:30:00 AM 43.4601 -108.2894 156° South  Level FlightAware Approximate
Mon 08:30:15 AM 43.9742 -108.4939 148° Southeast 386 444 19,000  Level Salt Lake Center
Mon 08:31:00 AM 43.3814 -108.2045 142° Southeast  Level Estimated
Mon 08:31:15 AM 43.8925 -108.4178 146° Southeast 372 428 21,100  Level Salt Lake Center
Mon 08:32:16 AM 43.7961 -108.3292 146° Southeast 367 422 22,300 1,091 Climbing Salt Lake Center
Mon 08:33:16 AM 43.7122 -108.2494 146° Southeast 377 434 23,300 942 Climbing Salt Lake Center
Mon 08:34:17 AM 43.6286 -108.1717 146° Southeast 379 436 24,200 843 Climbing Salt Lake Center
Mon 08:35:17 AM 43.5283 -108.0797 146° Southeast 385 443 25,000 397 Climbing Salt Lake Center
Mon 08:36:18 AM 43.4389 -107.9961 146° Southeast 400 460 25,000  Level Salt Lake Center
Mon 08:37:18 AM 43.3456 -107.9122 147° Southeast 414 476 25,000  Level Salt Lake Center
Mon 08:38:19 AM 43.2492 -107.8233 146° Southeast 430 495 25,000  Level Salt Lake Center
Mon 08:39:20 AM 43.1347 -107.7181 146° Southeast 440 506 25,000  Level Salt Lake Center
Mon 08:40:20 AM 43.0356 -107.6278 146° Southeast 445 512 25,000  Level Salt Lake Center
Mon 08:41:21 AM 42.9358 -107.5372 146° Southeast 448 516 25,000  Level Salt Lake Center
Mon 08:42:22 AM 42.8222 -107.4258 144° Southeast 450 518 25,000  Level Salt Lake Center
Mon 08:43:22 AM 42.7258 -107.3300 144° Southeast 449 517 25,000  Level Salt Lake Center
Mon 08:44:23 AM 42.6292 -107.2350 144° Southeast 447 514 25,000  Level Salt Lake Center
Mon 08:45:23 AM 42.5142 -107.1233 144° Southeast 452 520 25,000  Level Salt Lake Center
Mon 08:46:24 AM 42.4181 -107.0281 144° Southeast 450 518 25,000  Level Salt Lake Center
Mon 08:47:25 AM 42.3197 -106.9336 145° Southeast 451 519 25,000  Level Salt Lake Center
Mon 08:48:25 AM 42.2050 -106.8231 144° Southeast 452 520 25,000  Level Salt Lake Center
Mon 08:48:55 AM 42.1531 -106.7750 146° Southeast 449 517 25,000  Level Denver Center
Mon 08:49:56 AM 42.0547 -106.6819 145° Southeast 451 519 25,000  Level Denver Center
Mon 08:50:57 AM 41.9578 -106.5892 145° Southeast 447 514 25,000  Level Denver Center
Mon 08:51:58 AM 41.8517 -106.4889 145° Southeast 447 514 25,000  Level Denver Center
Mon 08:52:59 AM 41.7367 -106.3814 145° Southeast 450 518 25,000  Level Denver Center
Mon 08:54:00 AM 41.6392 -106.2889 145° Southeast 450 518 25,000  Level Denver Center
Mon 08:55:01 AM 41.5411 -106.1978 145° Southeast 450 518 25,000  Level Denver Center
Mon 08:56:02 AM 41.4253 -106.0900 145° Southeast 453 521 25,000  Level Denver Center
Mon 08:57:03 AM 41.3261 -105.9986 145° Southeast 453 521 25,000  Level Denver Center
Mon 08:58:04 AM 41.2281 -105.9081 145° Southeast 451 519 25,000  Level Denver Center
Mon 08:59:05 AM 41.1114 -105.8000 145° Southeast 454 522 25,000  Level Denver Center
Mon 09:00:06 AM 41.0144 -105.7117 145° Southeast 456 525 25,000  Level Denver Center
Mon 09:01:07 AM 40.9097 -105.6158 145° Southeast 458 527 25,000 -443 Level Denver Center
Mon 09:02:08 AM 40.8047 -105.5197 145° Southeast 459 528 24,100 -1,525 Descending Denver Center
Mon 09:03:09 AM 40.7014 -105.4256 145° Southeast 455 524 21,900 -2,164 Descending Denver Center
Mon 09:04:10 AM 40.5931 -105.3261 145° Southeast 398 458 19,700 -1,770 Descending Denver Center
Mon 09:05:11 AM 40.5083 -105.2522 146° Southeast 370 426 18,300 -1,328 Descending Denver Center
Mon 09:06:12 AM 40.4392 -105.1467 131° Southeast 388 447 17,000 -1,131 Descending Denver Center
Mon 09:07:13 AM 40.3761 -105.0417 128° Southeast 370 426 16,000 -1,230 Descending Denver Center
Mon 09:08:14 AM 40.3136 -104.9375 128° Southeast 362 417 14,500 -1,623 Descending Denver Center
Mon 09:09:15 AM 40.2650 -104.8556 128° Southeast 338 389 12,700 -1,967 Descending Denver Center
Mon 09:10:16 AM 40.1797 -104.7803 146° Southeast 296 341 10,500 -1,918 Descending Denver Center
Mon 09:11:17 AM 40.1042 -104.7450 160° South 286 329 8,800 -1,672 Descending Denver Center
Mon 09:12:18 AM 40.0364 -104.7131 160° South 261 300 7,100 -984 Descending Denver Center
Mon 09:13:19 AM 39.9792 -104.6869 161° South 217 250 6,800 -492 Descending Denver Center
Mon 09:14:20 AM 39.9408 -104.6867 180° South 142 163 6,100 -639 Descending Denver Center
Mon 09:15:21 AM 39.9042 -104.6864 180° South 124 143 5,500 -393 Descending Denver Center
Mon 09:16:22 AM 39.8756 -104.6878 182° South 124 143 5,300 -197 Descending Denver Center
Mon 09:18:00 AM 39.8617 -104.6732 180° South  Level Estimated
Mon 09:25:00 AM 39.8617 -104.6732 180° South  Level Estimated
Mon 09:26:00 AM 39.8617 -104.6732 180° South  Level Estimated

Login

Don't have an account? Register now (free) for customized features, flight alerts, and more!